Strona główna
METAR-TAF:

METAR-TAF

Lotnisko :

Port lotniczy Waterford

Waterford, Irlandia

Szerokość geograficzna: 52-11-14N, Długość geograficzna: 7-05-13W, wysokość: 36 m

Aktualna obserwacja pogody

Raport powstał 37 minut temu, godzina 12:00 UTC
Wiatr 12 kt od południowy zachód, zmienny między południe i zachodnio-południowy zachód
Temperatura
Ciśnienie 1037 hPa
Widzialność 10 km lub więcej
Mało chmury na wysokości 700 ft

METAR: EIWF 261200Z 22012KT 190V250 9999 FEW007 ///// Q1037

czas: 12:37 (12:37 UTC)

Prognoza

Raport powstał 1 godzina i 37 minut temu, godzina 11:00 UTC
Prognoza ważna od 26 godzina 12 UTC do 26 godzina 21 UTC
Wiatr 12 kt od południowo-południowy zachód
Widzialność 10 km lub więcej
Mało chmury na wysokości 800 ft

TAF: EIWF 261100Z 2612/2621 21012KT 9999 FEW008

Obserwacja i prognoza pogody dla ponad 4000 lotnisk (raport METAR i TAF).

Dostępne stacje oznaczono żółtymi i czerwonymi punktami na mapie.

Najedź kursorem aby zobaczyć nazwę stacji.

Kliknij aby zobaczyć obserwacje i prognozy pogody.

Aby zmienić mapę: kliknij na zielony przycisk z czarnym krzyżykiem, aby powiększyć; na zielony przycisk z myślnikiem, aby pomniejszyć; na zielone strzałki, aby przejść do map sąsiednich.


METAR-TAF: